createdAt,value
2023-03-06T00:00:25.072Z,0
2023-03-06T00:01:25.066Z,0
2023-03-06T00:02:25.059Z,0
2023-03-06T00:03:25.125Z,0
2023-03-06T00:04:25.053Z,0
2023-03-06T00:05:25.131Z,0
2023-03-06T00:06:25.050Z,0
2023-03-06T00:07:25.054Z,0
2023-03-06T00:08:25.053Z,0
2023-03-06T00:09:25.056Z,0
2023-03-06T00:10:25.067Z,0
2023-03-06T00:11:25.049Z,0
2023-03-06T00:12:25.052Z,0
2023-03-06T00:13:25.073Z,0
2023-03-06T00:14:25.052Z,0
2023-03-06T00:15:25.047Z,0
2023-03-06T00:16:25.139Z,0
2023-03-06T00:17:25.049Z,0
2023-03-06T00:18:25.053Z,0
2023-03-06T00:19:25.058Z,0
2023-03-06T00:20:25.058Z,0
2023-03-06T00:21:25.056Z,0
2023-03-06T00:22:25.051Z,0
2023-03-06T00:23:25.060Z,0
2023-03-06T00:24:25.054Z,0
2023-03-06T00:25:25.064Z,0
2023-03-06T00:26:25.060Z,0
2023-03-06T00:27:25.060Z,0
2023-03-06T00:28:25.058Z,0
2023-03-06T00:29:25.088Z,0
2023-03-06T00:30:25.055Z,0
2023-03-06T00:31:25.082Z,0
2023-03-06T00:32:25.130Z,0
2023-03-06T00:33:25.056Z,0
2023-03-06T00:34:25.056Z,0
2023-03-06T00:35:25.078Z,0
2023-03-06T00:36:25.059Z,0
2023-03-06T00:37:25.091Z,0
2023-03-06T00:38:25.060Z,0
2023-03-06T00:39:25.061Z,0
2023-03-06T00:40:25.060Z,0
2023-03-06T00:41:25.057Z,0
2023-03-06T00:42:25.076Z,0
2023-03-06T00:43:25.061Z,0
2023-03-06T00:44:25.060Z,0
2023-03-06T00:45:25.102Z,0
2023-03-06T00:46:25.059Z,0
2023-03-06T00:47:25.059Z,0
2023-03-06T00:48:25.056Z,0
2023-03-06T00:49:25.065Z,0
2023-03-06T00:50:25.062Z,0
2023-03-06T00:51:25.060Z,0
2023-03-06T00:52:25.081Z,0
2023-03-06T00:53:25.063Z,0
2023-03-06T00:54:25.064Z,0
2023-03-06T00:55:25.065Z,0
2023-03-06T00:56:25.065Z,0
2023-03-06T00:57:25.064Z,0
2023-03-06T00:58:25.067Z,0
2023-03-06T00:59:25.062Z,0
2023-03-06T01:00:25.095Z,0
2023-03-06T01:01:25.094Z,0
2023-03-06T01:02:25.118Z,0
2023-03-06T01:03:25.072Z,0
2023-03-06T01:04:25.068Z,0
2023-03-06T01:05:25.089Z,0
2023-03-06T01:06:25.064Z,0
2023-03-06T01:07:25.069Z,0
2023-03-06T01:08:25.066Z,0
2023-03-06T01:09:25.068Z,0
2023-03-06T01:10:25.074Z,0
2023-03-06T01:11:25.066Z,0
2023-03-06T01:12:25.064Z,0
2023-03-06T01:13:25.068Z,0
2023-03-06T01:14:25.071Z,0
2023-03-06T01:15:25.070Z,0
2023-03-06T01:16:25.256Z,0
2023-03-06T01:17:25.104Z,0
2023-03-06T01:18:25.069Z,0
2023-03-06T01:19:25.068Z,0
2023-03-06T01:20:25.070Z,0
2023-03-06T01:21:25.067Z,0
2023-03-06T01:22:25.072Z,0
2023-03-06T01:23:25.067Z,0
2023-03-06T01:24:25.070Z,0
2023-03-06T01:25:25.066Z,0
2023-03-06T01:26:25.068Z,0
2023-03-06T01:27:25.071Z,0
2023-03-06T01:28:25.068Z,0
2023-03-06T01:29:25.073Z,0
2023-03-06T01:30:25.069Z,0
2023-03-06T01:31:25.147Z,0
2023-03-06T01:32:25.113Z,0
2023-03-06T01:33:25.093Z,0
2023-03-06T01:34:25.072Z,0
2023-03-06T01:35:25.091Z,0
2023-03-06T01:36:25.073Z,0
2023-03-06T01:37:25.109Z,0
2023-03-06T01:38:25.089Z,0
2023-03-06T01:39:25.084Z,0
2023-03-06T01:40:25.085Z,0
2023-03-06T01:41:25.088Z,0
2023-03-06T01:42:25.075Z,0
2023-03-06T01:43:25.073Z,0
2023-03-06T01:44:25.078Z,0
2023-03-06T01:45:25.081Z,0
2023-03-06T01:46:25.082Z,0
2023-03-06T01:47:25.078Z,0
2023-03-06T01:48:25.077Z,0
2023-03-06T01:49:25.127Z,0
2023-03-06T01:50:25.079Z,0
2023-03-06T01:51:25.084Z,0
2023-03-06T01:52:25.077Z,0
2023-03-06T01:53:25.091Z,0
2023-03-06T01:54:25.089Z,0
2023-03-06T01:55:25.083Z,0
2023-03-06T01:56:25.104Z,0
2023-03-06T01:57:25.086Z,0
2023-03-06T01:58:25.082Z,0
2023-03-06T01:59:25.083Z,0
2023-03-06T02:00:25.083Z,0
2023-03-06T02:01:25.160Z,0
2023-03-06T02:02:25.143Z,0
2023-03-06T02:03:25.102Z,0
2023-03-06T02:04:25.090Z,0
2023-03-06T02:05:25.113Z,0
2023-03-06T02:06:25.098Z,0
2023-03-06T02:07:25.087Z,0
2023-03-06T02:08:25.088Z,0
2023-03-06T02:09:25.090Z,0
2023-03-06T02:10:25.090Z,0
2023-03-06T02:11:25.142Z,0
2023-03-06T02:12:25.091Z,0
2023-03-06T02:13:25.096Z,0
2023-03-06T02:14:25.093Z,0
2023-03-06T02:15:25.092Z,0
2023-03-06T02:16:25.150Z,0
2023-03-06T02:17:25.092Z,0
2023-03-06T02:18:25.093Z,0
2023-03-06T02:19:25.097Z,0
2023-03-06T02:20:25.095Z,0
2023-03-06T02:21:25.116Z,0
2023-03-06T02:22:25.096Z,0
2023-03-06T02:23:25.095Z,0
2023-03-06T02:24:25.100Z,0
2023-03-06T02:25:25.102Z,0
2023-03-06T02:26:25.100Z,0
2023-03-06T02:27:25.095Z,0
2023-03-06T02:28:25.100Z,0
2023-03-06T02:29:25.107Z,0
2023-03-06T02:30:25.105Z,0
2023-03-06T02:31:25.103Z,0
2023-03-06T02:32:25.137Z,0
2023-03-06T02:33:25.110Z,0
2023-03-06T02:34:25.105Z,0
2023-03-06T02:35:25.157Z,0
2023-03-06T02:36:25.104Z,0
2023-03-06T02:37:25.131Z,0
2023-03-06T02:38:25.108Z,0
2023-03-06T02:39:25.106Z,0
2023-03-06T02:40:25.105Z,0
2023-03-06T02:41:25.105Z,0
2023-03-06T02:42:25.112Z,0
2023-03-06T02:43:25.110Z,0
2023-03-06T02:44:25.107Z,0
2023-03-06T02:45:25.122Z,0
2023-03-06T02:46:25.185Z,0
2023-03-06T02:47:25.106Z,0
2023-03-06T02:48:25.105Z,0
2023-03-06T02:49:26.493Z,0
2023-03-06T02:50:25.109Z,0
2023-03-06T02:51:25.105Z,0
2023-03-06T02:52:25.105Z,0
2023-03-06T02:53:25.129Z,0
2023-03-06T02:54:25.101Z,0
2023-03-06T02:55:25.116Z,0
2023-03-06T02:56:25.104Z,0
2023-03-06T02:57:25.105Z,0
2023-03-06T02:58:25.103Z,0
2023-03-06T02:59:25.105Z,0
2023-03-06T03:00:25.104Z,0
2023-03-06T03:01:25.119Z,0
2023-03-06T03:02:25.104Z,0
2023-03-06T03:03:25.105Z,0
2023-03-06T03:04:25.243Z,0
2023-03-06T03:05:25.105Z,0
2023-03-06T03:06:25.106Z,0
2023-03-06T03:07:25.107Z,0
2023-03-06T03:08:25.106Z,0
2023-03-06T03:09:25.137Z,0
2023-03-06T03:10:25.108Z,0
2023-03-06T03:11:25.104Z,0
2023-03-06T03:12:25.105Z,0
2023-03-06T03:13:25.106Z,0
2023-03-06T03:14:25.101Z,0
2023-03-06T03:15:25.109Z,0
2023-03-06T03:16:25.106Z,0
2023-03-06T03:17:25.108Z,0
2023-03-06T03:18:25.102Z,0
2023-03-06T03:19:25.108Z,0
2023-03-06T03:20:25.112Z,0
2023-03-06T03:21:25.109Z,0
2023-03-06T03:22:25.108Z,0
2023-03-06T03:23:25.112Z,0
2023-03-06T03:24:25.148Z,0
2023-03-06T03:25:25.146Z,0
2023-03-06T03:26:25.114Z,0
2023-03-06T03:27:25.115Z,0
2023-03-06T03:28:25.110Z,0
2023-03-06T03:29:25.119Z,0
2023-03-06T03:30:25.119Z,0
2023-03-06T03:31:25.157Z,0
2023-03-06T03:32:25.159Z,0
2023-03-06T03:33:25.118Z,0
2023-03-06T03:34:25.112Z,0
2023-03-06T03:35:25.142Z,0
2023-03-06T03:36:25.113Z,0
2023-03-06T03:37:25.116Z,0
2023-03-06T03:38:25.119Z,0
2023-03-06T03:39:25.117Z,0
2023-03-06T03:40:25.118Z,0
2023-03-06T03:41:25.143Z,0
2023-03-06T03:42:25.114Z,0
2023-03-06T03:43:25.116Z,0
2023-03-06T03:44:25.118Z,0
2023-03-06T03:45:25.117Z,0
2023-03-06T03:46:25.171Z,0
2023-03-06T03:47:25.129Z,0
2023-03-06T03:48:25.135Z,0
2023-03-06T03:49:25.121Z,0
2023-03-06T03:50:25.124Z,0
2023-03-06T03:51:25.120Z,0
2023-03-06T03:52:25.123Z,0
2023-03-06T03:53:25.126Z,0
2023-03-06T03:54:25.125Z,0
2023-03-06T03:55:25.123Z,0
2023-03-06T03:56:25.125Z,0
2023-03-06T03:57:25.150Z,0
2023-03-06T03:58:25.123Z,0
2023-03-06T03:59:25.133Z,0
2023-03-06T04:00:25.121Z,0
2023-03-06T04:01:25.122Z,0
2023-03-06T04:02:25.122Z,0
2023-03-06T04:03:25.124Z,0
2023-03-06T04:04:25.126Z,0
2023-03-06T04:05:25.129Z,0
2023-03-06T04:06:25.125Z,0
2023-03-06T04:07:25.128Z,0
2023-03-06T04:08:25.129Z,0
2023-03-06T04:09:25.122Z,0
2023-03-06T04:10:25.125Z,0
2023-03-06T04:11:25.129Z,0
2023-03-06T04:12:25.125Z,0
2023-03-06T04:13:25.147Z,0
2023-03-06T04:14:25.124Z,0
2023-03-06T04:15:25.125Z,0
2023-03-06T04:16:25.144Z,0
2023-03-06T04:17:25.125Z,0
2023-03-06T04:18:25.125Z,0
2023-03-06T04:19:25.126Z,0
2023-03-06T04:20:25.127Z,0
2023-03-06T04:21:25.132Z,0
2023-03-06T04:22:25.128Z,0
2023-03-06T04:23:25.125Z,0
2023-03-06T04:24:25.151Z,0
2023-03-06T04:25:25.129Z,0
2023-03-06T04:26:25.132Z,0
2023-03-06T04:27:25.126Z,0
2023-03-06T04:28:25.129Z,0
2023-03-06T04:29:25.151Z,0
2023-03-06T04:30:25.131Z,0
2023-03-06T04:31:25.169Z,0
2023-03-06T04:32:25.242Z,0
2023-03-06T04:33:25.131Z,0
2023-03-06T04:34:25.135Z,0
2023-03-06T04:35:25.217Z,0
2023-03-06T04:36:25.131Z,0
2023-03-06T04:37:25.132Z,0
2023-03-06T04:38:25.136Z,0
2023-03-06T04:39:25.134Z,0
2023-03-06T04:40:25.266Z,0
2023-03-06T04:41:25.137Z,0
2023-03-06T04:42:25.146Z,0
2023-03-06T04:43:25.138Z,0
2023-03-06T04:44:25.139Z,0
2023-03-06T04:45:25.260Z,0
2023-03-06T04:46:25.141Z,0
2023-03-06T04:47:25.139Z,0
2023-03-06T04:48:25.144Z,0
2023-03-06T04:49:25.135Z,0
2023-03-06T04:50:25.245Z,0
2023-03-06T04:51:25.139Z,0
2023-03-06T04:52:25.139Z,0
2023-03-06T04:53:25.141Z,0
2023-03-06T04:54:25.139Z,0
2023-03-06T04:55:25.152Z,0
2023-03-06T04:56:25.147Z,0
2023-03-06T04:57:25.142Z,0
2023-03-06T04:58:25.139Z,0
2023-03-06T04:59:25.140Z,0
2023-03-06T05:00:25.271Z,0
2023-03-06T05:01:25.224Z,0
2023-03-06T05:02:25.153Z,0
2023-03-06T05:03:25.142Z,0
2023-03-06T05:04:25.145Z,0
2023-03-06T05:05:25.140Z,0
2023-03-06T05:06:25.143Z,0
2023-03-06T05:07:25.141Z,0
2023-03-06T05:08:25.141Z,0
2023-03-06T05:09:25.139Z,0
2023-03-06T05:10:25.148Z,0
2023-03-06T05:11:25.139Z,0
2023-03-06T05:12:25.143Z,0
2023-03-06T05:13:25.149Z,0
2023-03-06T05:14:25.138Z,0
2023-03-06T05:15:25.217Z,0
2023-03-06T05:16:25.189Z,0
2023-03-06T05:17:25.163Z,0
2023-03-06T05:18:25.145Z,0
2023-03-06T05:19:25.137Z,0
2023-03-06T05:20:25.140Z,1
2023-03-06T05:21:25.138Z,1
2023-03-06T05:22:25.151Z,1
2023-03-06T05:23:25.141Z,1
2023-03-06T05:24:25.138Z,1
2023-03-06T05:25:25.164Z,3
2023-03-06T05:26:25.138Z,3
2023-03-06T05:27:25.140Z,3
2023-03-06T05:28:25.140Z,3
2023-03-06T05:29:25.139Z,3
2023-03-06T05:30:25.139Z,6
2023-03-06T05:31:25.168Z,6
2023-03-06T05:32:25.176Z,6
2023-03-06T05:33:25.166Z,6
2023-03-06T05:34:25.141Z,6
2023-03-06T05:35:25.186Z,13
2023-03-06T05:36:25.143Z,13
2023-03-06T05:37:25.144Z,13
2023-03-06T05:38:25.145Z,13
2023-03-06T05:39:25.149Z,13
2023-03-06T05:40:25.146Z,23
2023-03-06T05:41:25.145Z,23
2023-03-06T05:42:26.404Z,29
2023-03-06T05:43:25.154Z,29
2023-03-06T05:44:25.149Z,29
2023-03-06T05:45:25.150Z,29
2023-03-06T05:46:25.153Z,29
2023-03-06T05:47:25.161Z,47
2023-03-06T05:48:25.156Z,47
2023-03-06T05:49:25.178Z,47
2023-03-06T05:50:25.163Z,47
2023-03-06T05:51:25.155Z,47
2023-03-06T05:52:25.155Z,74
2023-03-06T05:53:25.154Z,74
2023-03-06T05:54:25.153Z,74
2023-03-06T05:55:25.151Z,74
2023-03-06T05:56:25.160Z,74
2023-03-06T05:57:25.157Z,107
2023-03-06T05:58:25.156Z,107
2023-03-06T05:59:25.161Z,107
2023-03-06T06:00:25.154Z,107
2023-03-06T06:01:25.161Z,107
2023-03-06T06:02:25.181Z,141
2023-03-06T06:03:25.207Z,141
2023-03-06T06:04:25.165Z,141
2023-03-06T06:05:25.182Z,141
2023-03-06T06:06:25.154Z,141
2023-03-06T06:07:25.160Z,174
2023-03-06T06:08:25.165Z,174
2023-03-06T06:09:25.153Z,174
2023-03-06T06:10:25.161Z,174
2023-03-06T06:11:25.154Z,174
2023-03-06T06:12:25.159Z,217
2023-03-06T06:13:25.176Z,217
2023-03-06T06:14:25.158Z,217
2023-03-06T06:15:25.155Z,217
2023-03-06T06:16:25.160Z,217
2023-03-06T06:17:25.158Z,285
2023-03-06T06:18:25.161Z,285
2023-03-06T06:19:25.155Z,285
2023-03-06T06:20:25.163Z,285
2023-03-06T06:21:25.180Z,285
2023-03-06T06:22:25.164Z,374
2023-03-06T06:23:25.160Z,374
2023-03-06T06:24:25.165Z,374
2023-03-06T06:25:25.161Z,374
2023-03-06T06:26:25.165Z,374
2023-03-06T06:27:25.163Z,451
2023-03-06T06:28:25.167Z,451
2023-03-06T06:29:25.165Z,451
2023-03-06T06:30:25.164Z,451
2023-03-06T06:31:25.213Z,451
2023-03-06T06:32:25.236Z,514
2023-03-06T06:33:25.171Z,514
2023-03-06T06:34:25.170Z,514
2023-03-06T06:35:25.221Z,514
2023-03-06T06:36:25.164Z,514
2023-03-06T06:37:25.263Z,639
2023-03-06T06:38:25.173Z,639
2023-03-06T06:39:25.166Z,639
2023-03-06T06:40:25.185Z,639
2023-03-06T06:41:42.545Z,639
2023-03-06T06:42:38.153Z,696
2023-03-06T06:43:25.172Z,759
2023-03-06T06:44:25.172Z,713
2023-03-06T06:45:25.172Z,713
2023-03-06T06:47:09.536Z,713
2023-03-06T06:47:25.963Z,713
2023-03-06T06:48:25.172Z,713
2023-03-06T06:49:25.178Z,834
2023-03-06T06:50:25.175Z,834
2023-03-06T06:51:25.172Z,834
2023-03-06T06:52:25.184Z,834
2023-03-06T06:53:27.352Z,834
2023-03-06T06:54:25.186Z,926
2023-03-06T06:55:25.175Z,926
2023-03-06T06:56:25.176Z,926
2023-03-06T06:57:25.187Z,926
2023-03-06T06:58:25.174Z,926
2023-03-06T06:59:25.173Z,1009
2023-03-06T07:00:25.186Z,1009
2023-03-06T07:01:25.206Z,1009
2023-03-06T07:02:25.178Z,1009
2023-03-06T07:03:25.178Z,1009
2023-03-06T07:04:25.179Z,936
2023-03-06T07:05:25.180Z,936
2023-03-06T07:06:25.183Z,936
2023-03-06T07:07:26.486Z,936
2023-03-06T07:08:25.187Z,936
2023-03-06T07:09:25.329Z,887
2023-03-06T07:10:25.184Z,887
2023-03-06T07:11:25.186Z,887
2023-03-06T07:12:25.189Z,887
2023-03-06T07:13:25.195Z,887
2023-03-06T07:14:25.192Z,879
2023-03-06T07:15:25.191Z,879
2023-03-06T07:16:25.192Z,879
2023-03-06T07:17:25.192Z,879
2023-03-06T07:18:25.193Z,879
2023-03-06T07:19:25.192Z,920
2023-03-06T07:20:25.196Z,920
2023-03-06T07:21:25.196Z,920
2023-03-06T07:22:25.207Z,920
2023-03-06T07:23:25.196Z,920
2023-03-06T07:24:25.194Z,952
2023-03-06T07:25:25.219Z,952
2023-03-06T07:26:25.196Z,952
2023-03-06T07:27:25.246Z,952
2023-03-06T07:28:25.202Z,952
2023-03-06T07:29:25.205Z,973
2023-03-06T07:30:25.202Z,973
2023-03-06T07:31:25.302Z,973
2023-03-06T07:32:25.246Z,973
2023-03-06T07:33:25.196Z,973
2023-03-06T07:34:25.197Z,1015
2023-03-06T07:35:25.193Z,1015
2023-03-06T07:36:25.195Z,1015
2023-03-06T07:37:25.197Z,1015
2023-03-06T07:38:25.198Z,1015
2023-03-06T07:39:25.196Z,1055
2023-03-06T07:40:25.200Z,1055
2023-03-06T07:41:25.224Z,1055
2023-03-06T07:42:25.204Z,1055
2023-03-06T07:43:25.200Z,1055
2023-03-06T07:44:25.204Z,1114
2023-03-06T07:45:25.201Z,1114
2023-03-06T07:46:25.273Z,1114
2023-03-06T07:47:25.199Z,1114
2023-03-06T07:48:25.206Z,1114
2023-03-06T07:49:25.204Z,1161
2023-03-06T07:50:25.204Z,1161
2023-03-06T07:51:25.202Z,1161
2023-03-06T07:52:25.206Z,1161
2023-03-06T07:53:25.206Z,1161
2023-03-06T07:54:25.210Z,1222
2023-03-06T07:55:25.211Z,1222
2023-03-06T07:56:25.210Z,1222
2023-03-06T07:57:25.235Z,1222
2023-03-06T07:58:25.221Z,1222
2023-03-06T07:59:25.212Z,1304
2023-03-06T08:00:25.215Z,1304
2023-03-06T08:01:25.229Z,1304
2023-03-06T08:02:25.231Z,1304
2023-03-06T08:03:25.238Z,1304
2023-03-06T08:04:25.238Z,1510
2023-03-06T08:05:25.214Z,1510
2023-03-06T08:06:25.220Z,1510
2023-03-06T08:07:25.218Z,1510
2023-03-06T08:08:25.222Z,1510
2023-03-06T08:09:25.224Z,1595
2023-03-06T08:10:25.220Z,1595
2023-03-06T08:11:25.220Z,1595
2023-03-06T08:12:25.218Z,1595
2023-03-06T08:13:25.250Z,1595
2023-03-06T08:14:25.219Z,1665
2023-03-06T08:15:25.224Z,1665
2023-03-06T08:16:25.298Z,1665
2023-03-06T08:17:25.219Z,1665
2023-03-06T08:18:25.223Z,1665
2023-03-06T08:19:25.222Z,1637
2023-03-06T08:20:25.265Z,1637
2023-03-06T08:21:25.227Z,1637
2023-03-06T08:22:25.221Z,1637
2023-03-06T08:23:25.225Z,1637
2023-03-06T08:24:25.222Z,1940
2023-03-06T08:25:25.225Z,1940
2023-03-06T08:26:25.225Z,1940
2023-03-06T08:27:25.225Z,1940
2023-03-06T08:28:25.219Z,1940
2023-03-06T08:29:25.256Z,2111
2023-03-06T08:30:25.283Z,2111
2023-03-06T08:31:25.274Z,2111
2023-03-06T08:32:25.254Z,2111
2023-03-06T08:33:25.244Z,2111
2023-03-06T08:34:25.232Z,2330
2023-03-06T08:35:25.253Z,2330
2023-03-06T08:36:25.229Z,2330
2023-03-06T08:37:25.259Z,2330
2023-03-06T08:38:25.229Z,2330
2023-03-06T08:39:25.230Z,2054
2023-03-06T08:40:25.229Z,2054
2023-03-06T08:41:25.231Z,2054
2023-03-06T08:42:25.229Z,2054
2023-03-06T08:43:25.244Z,2054
2023-03-06T08:44:25.232Z,1704
2023-03-06T08:45:25.354Z,1704
2023-03-06T08:46:25.237Z,1704
2023-03-06T08:47:25.236Z,1704
2023-03-06T08:48:25.230Z,1704
2023-03-06T08:49:25.229Z,1762
2023-03-06T08:50:25.234Z,1762
2023-03-06T08:51:25.237Z,1762
2023-03-06T08:52:25.233Z,1762
2023-03-06T08:53:36.770Z,1762
2023-03-06T08:54:25.245Z,1955
2023-03-06T08:55:25.239Z,1955
2023-03-06T08:56:25.235Z,1955
2023-03-06T08:57:25.234Z,1955
2023-03-06T08:58:25.233Z,1955
2023-03-06T08:59:25.277Z,2412
2023-03-06T09:00:25.356Z,2412
2023-03-06T09:01:25.292Z,2412
2023-03-06T09:02:25.265Z,2412
2023-03-06T09:03:25.240Z,2412
2023-03-06T09:04:25.240Z,2305
2023-03-06T09:05:25.240Z,2305
2023-03-06T09:06:25.245Z,2305
2023-03-06T09:07:25.244Z,2305
2023-03-06T09:08:25.243Z,2305
2023-03-06T09:09:25.254Z,2569
2023-03-06T09:10:25.379Z,2569
2023-03-06T09:11:25.251Z,2569
2023-03-06T09:12:25.246Z,2569
2023-03-06T09:13:25.249Z,2569
2023-03-06T09:14:25.258Z,3430
2023-03-06T09:15:25.249Z,3430
2023-03-06T09:16:25.317Z,3430
2023-03-06T09:17:25.310Z,3430
2023-03-06T09:18:25.248Z,3430
2023-03-06T09:19:25.252Z,3653
2023-03-06T09:20:25.256Z,3653
2023-03-06T09:21:25.255Z,3653
2023-03-06T09:22:25.252Z,3653
2023-03-06T09:23:25.261Z,3653
2023-03-06T09:24:25.258Z,3249
2023-03-06T09:25:25.262Z,3249
2023-03-06T09:26:36.080Z,3249
2023-03-06T09:27:25.260Z,3249
2023-03-06T09:28:25.272Z,3249
2023-03-06T09:29:25.265Z,3085
2023-03-06T09:30:25.265Z,3085
2023-03-06T09:31:25.263Z,3085
2023-03-06T09:32:25.334Z,3085
2023-03-06T09:33:25.289Z,3085
2023-03-06T09:34:25.264Z,3039
2023-03-06T09:35:25.295Z,3039
2023-03-06T09:36:25.264Z,3039
2023-03-06T09:37:25.268Z,3039
2023-03-06T09:38:25.292Z,3039
2023-03-06T09:39:25.272Z,2909
2023-03-06T09:40:25.270Z,2909
2023-03-06T09:41:25.279Z,2909
2023-03-06T09:42:25.275Z,2909
2023-03-06T09:43:25.268Z,2909
2023-03-06T09:44:25.271Z,2539
2023-03-06T09:45:25.272Z,2539
2023-03-06T09:46:25.311Z,2539
2023-03-06T09:47:25.270Z,2539
2023-03-06T09:48:25.272Z,2539
2023-03-06T09:49:25.310Z,2284
2023-03-06T09:50:25.272Z,2284
2023-03-06T09:51:25.273Z,2284
2023-03-06T09:52:25.280Z,2284
2023-03-06T09:53:25.275Z,2284
2023-03-06T09:54:25.275Z,2244
2023-03-06T09:55:25.276Z,2244
2023-03-06T09:56:25.274Z,2244
2023-03-06T09:57:25.273Z,2244
2023-03-06T09:58:25.277Z,2244
2023-03-06T09:59:25.304Z,2087
2023-03-06T10:00:25.286Z,2087
2023-03-06T10:01:25.275Z,2087
2023-03-06T10:02:25.385Z,2087
2023-03-06T10:03:25.331Z,2087
2023-03-06T10:04:25.279Z,1938
2023-03-06T10:05:25.322Z,1938
2023-03-06T10:06:25.280Z,1938
2023-03-06T10:07:25.280Z,1938
2023-03-06T10:08:25.285Z,1938
2023-03-06T10:09:25.283Z,1772
2023-03-06T10:10:25.322Z,1772
2023-03-06T10:11:25.283Z,1772
2023-03-06T10:12:25.286Z,1772
2023-03-06T10:13:25.304Z,1772
2023-03-06T10:14:25.286Z,1677
2023-03-06T10:15:25.318Z,1677
2023-03-06T10:16:25.285Z,1677
2023-03-06T10:17:25.291Z,1677
2023-03-06T10:18:25.289Z,1677
2023-03-06T10:19:25.290Z,1732
2023-03-06T10:20:25.293Z,1732
2023-03-06T10:21:25.315Z,1732
2023-03-06T10:22:25.290Z,1732
2023-03-06T10:23:25.300Z,1732
2023-03-06T10:24:25.296Z,1953
2023-03-06T10:25:25.291Z,1953
2023-03-06T10:26:25.472Z,1953
2023-03-06T10:27:25.296Z,1953
2023-03-06T10:28:25.299Z,1953
2023-03-06T10:29:25.293Z,2101
2023-03-06T10:30:26.037Z,2101
2023-03-06T10:31:25.359Z,2101
2023-03-06T10:32:25.330Z,2101
2023-03-06T10:33:25.298Z,2101
2023-03-06T10:34:25.299Z,2405
2023-03-06T10:35:25.301Z,2405
2023-03-06T10:36:25.303Z,2405
2023-03-06T10:37:25.325Z,2405
2023-03-06T10:38:25.301Z,2405
2023-03-06T10:39:25.304Z,2693
2023-03-06T10:40:25.302Z,2693
2023-03-06T10:41:25.309Z,2693
2023-03-06T10:42:26.221Z,2693
2023-03-06T10:43:25.307Z,2693
2023-03-06T10:44:25.306Z,3176
2023-03-06T10:45:25.308Z,3176
2023-03-06T10:46:25.314Z,3176
2023-03-06T10:47:25.309Z,3176
2023-03-06T10:48:25.312Z,3176
2023-03-06T10:49:25.322Z,3516
2023-03-06T10:50:25.311Z,3516
2023-03-06T10:51:25.313Z,3516
2023-03-06T10:52:25.312Z,3516
2023-03-06T10:53:25.332Z,3516
2023-03-06T10:54:25.316Z,3770
2023-03-06T10:55:25.314Z,3770
2023-03-06T10:56:25.316Z,3770
2023-03-06T10:57:25.336Z,3770
2023-03-06T10:58:25.327Z,3770
2023-03-06T10:59:25.435Z,5177
2023-03-06T11:00:25.314Z,5177
2023-03-06T11:01:25.331Z,5177
2023-03-06T11:02:25.310Z,5177
2023-03-06T11:03:25.316Z,5177
2023-03-06T11:04:25.332Z,6479
2023-03-06T11:05:25.319Z,6479
2023-03-06T11:06:25.318Z,5974
2023-03-06T11:07:26.061Z,5708
2023-03-06T11:08:25.318Z,5574
2023-03-06T11:09:25.345Z,5574
2023-03-06T11:10:25.316Z,5574
2023-03-06T11:11:37.001Z,4189
2023-03-06T11:12:25.318Z,4747
2023-03-06T11:13:25.321Z,4747
2023-03-06T11:14:27.547Z,4747
2023-03-06T11:15:25.321Z,4747
2023-03-06T11:16:25.995Z,4824
2023-03-06T11:17:25.325Z,4824
2023-03-06T11:18:25.333Z,4824
2023-03-06T11:19:25.321Z,4824
2023-03-06T11:20:25.329Z,4824
2023-03-06T11:21:25.326Z,3492
2023-03-06T11:22:25.331Z,3492
2023-03-06T11:23:25.324Z,4817
2023-03-06T11:24:25.326Z,4817
2023-03-06T11:25:25.355Z,4817
2023-03-06T11:26:25.328Z,4817
2023-03-06T11:27:25.330Z,3783
2023-03-06T11:28:25.328Z,3958
2023-03-06T11:29:25.378Z,3774
2023-03-06T11:30:25.326Z,3154
2023-03-06T11:31:25.356Z,3143
2023-03-06T11:32:25.369Z,2901
2023-03-06T11:33:25.333Z,2934
2023-03-06T11:34:25.332Z,2934
2023-03-06T11:35:25.370Z,2934
2023-03-06T11:36:25.329Z,2934
2023-03-06T11:37:25.330Z,2934
2023-03-06T11:38:25.330Z,3529
2023-03-06T11:39:25.325Z,3529
2023-03-06T11:40:25.332Z,3529
2023-03-06T11:41:25.350Z,3529
2023-03-06T11:42:25.331Z,3529
2023-03-06T11:43:25.336Z,3563
2023-03-06T11:44:25.333Z,3563
2023-03-06T11:45:25.335Z,3563
2023-03-06T11:46:25.364Z,3563
2023-03-06T11:47:25.329Z,3563
2023-03-06T11:48:25.340Z,2692
2023-03-06T11:49:25.340Z,2692
2023-03-06T11:50:25.335Z,2692
2023-03-06T11:51:25.341Z,2692
2023-03-06T11:52:25.335Z,2692
2023-03-06T11:53:25.338Z,2678
2023-03-06T11:54:25.343Z,2678
2023-03-06T11:55:25.342Z,2678
2023-03-06T11:56:25.341Z,3803
2023-03-06T11:57:25.518Z,3993
2023-03-06T11:58:25.344Z,3993
2023-03-06T11:59:25.341Z,3398
2023-03-06T12:00:25.346Z,3384
2023-03-06T12:01:25.353Z,3597
2023-03-06T12:02:25.412Z,3876
2023-03-06T12:03:25.352Z,5801
2023-03-06T12:04:25.359Z,5801
2023-03-06T12:05:25.446Z,5801
2023-03-06T12:06:25.350Z,5801
2023-03-06T12:07:25.347Z,5882
2023-03-06T12:08:25.349Z,5965
2023-03-06T12:09:25.350Z,5965
2023-03-06T12:10:25.353Z,5965
2023-03-06T12:11:25.354Z,4680
2023-03-06T12:12:25.356Z,4250
2023-03-06T12:14:25.355Z,4250
2023-03-06T12:15:25.359Z,4250
2023-03-06T12:16:25.412Z,4250
2023-03-06T12:17:25.353Z,3056
2023-03-06T12:18:25.357Z,4713
2023-03-06T12:19:25.357Z,4713
2023-03-06T12:20:25.356Z,4713
2023-03-06T12:21:25.364Z,4713
2023-03-06T12:22:25.355Z,6687
2023-03-06T12:23:25.359Z,6687
2023-03-06T12:24:25.361Z,6521
2023-03-06T12:25:25.361Z,5665
2023-03-06T12:26:25.361Z,5665
2023-03-06T12:27:25.363Z,5665
2023-03-06T12:28:25.366Z,5110
2023-03-06T12:29:25.492Z,7058
2023-03-06T12:30:25.366Z,6866
2023-03-06T12:31:25.447Z,6866
2023-03-06T12:32:25.405Z,7076
2023-03-06T12:33:25.367Z,7006
2023-03-06T12:34:25.363Z,7086
2023-03-06T12:35:25.406Z,7546
2023-03-06T12:36:25.367Z,5456
2023-03-06T12:37:25.375Z,7357
2023-03-06T12:38:25.372Z,7357
2023-03-06T12:39:25.365Z,7867
2023-03-06T12:40:25.370Z,7921
2023-03-06T12:41:25.367Z,7910
2023-03-06T12:42:25.365Z,7910
2023-03-06T12:43:25.370Z,8087
2023-03-06T12:44:25.369Z,8045
2023-03-06T12:45:25.388Z,7398
2023-03-06T12:46:25.427Z,4238
2023-03-06T12:47:25.369Z,5398
2023-03-06T12:48:25.370Z,7296
2023-03-06T12:49:31.751Z,7403
2023-03-06T12:50:25.370Z,7306
2023-03-06T12:51:25.371Z,6552
2023-03-06T12:52:30.125Z,3240
2023-03-06T12:53:25.380Z,2905
2023-03-06T12:54:25.374Z,2802
2023-03-06T12:55:26.010Z,3049
2023-03-06T12:56:25.381Z,2775
2023-03-06T12:57:25.371Z,2487
2023-03-06T12:58:25.379Z,2381
2023-03-06T12:59:25.374Z,2334
2023-03-06T13:00:25.378Z,2334
2023-03-06T13:01:25.412Z,2098
2023-03-06T13:02:25.405Z,2060
2023-03-06T13:03:25.383Z,2060
2023-03-06T13:04:25.383Z,2060
2023-03-06T13:05:25.377Z,2060
2023-03-06T13:06:25.378Z,1785
2023-03-06T13:07:25.381Z,1785
2023-03-06T13:08:25.397Z,1349
2023-03-06T13:09:25.381Z,1349
2023-03-06T13:10:25.379Z,1349
2023-03-06T13:11:25.378Z,1349
2023-03-06T13:12:25.383Z,1349
2023-03-06T13:13:25.384Z,1165
2023-03-06T13:14:25.388Z,1112
2023-03-06T13:15:25.384Z,1077
2023-03-06T13:16:25.453Z,1037
2023-03-06T13:17:25.414Z,1057
2023-03-06T13:18:25.386Z,1009
2023-03-06T13:19:25.387Z,996
2023-03-06T13:20:25.388Z,1026
2023-03-06T13:21:25.389Z,983
2023-03-06T13:22:25.390Z,974
2023-03-06T13:23:25.390Z,964
2023-03-06T13:24:25.389Z,953
2023-03-06T13:25:25.410Z,949
2023-03-06T13:26:25.408Z,956
2023-03-06T13:27:25.391Z,1015
2023-03-06T13:28:25.390Z,1005
2023-03-06T13:29:25.391Z,1041
2023-03-06T13:30:25.389Z,1063
2023-03-06T13:31:27.644Z,1047
2023-03-06T13:32:25.416Z,1002
2023-03-06T13:33:25.416Z,1002
2023-03-06T13:34:25.397Z,901
2023-03-06T13:35:25.421Z,931
2023-03-06T13:36:25.388Z,888
2023-03-06T13:37:25.391Z,921
2023-03-06T13:38:25.398Z,880
2023-03-06T13:39:25.396Z,880
2023-03-06T13:40:25.394Z,889
2023-03-06T13:41:25.392Z,889
2023-03-06T13:42:25.402Z,889
2023-03-06T13:43:25.394Z,847
2023-03-06T13:44:25.434Z,847
2023-03-06T13:45:25.392Z,858
2023-03-06T13:46:25.415Z,914
2023-03-06T13:47:25.395Z,876
2023-03-06T13:48:42.917Z,876
2023-03-06T13:49:25.425Z,876
2023-03-06T13:50:25.399Z,876
2023-03-06T13:51:25.397Z,876
2023-03-06T13:52:25.398Z,889
2023-03-06T13:53:25.401Z,889
2023-03-06T13:54:25.400Z,889
2023-03-06T13:55:25.397Z,889
2023-03-06T13:56:25.403Z,889
2023-03-06T13:57:25.409Z,841
2023-03-06T13:58:25.403Z,842